Time;durP1;ratioP1;P1;durP2;ratioP2;P2;SDS_P1;SDS_P2;PMS_P1;PMS_P2;Temp;Humidity;BMP_temperature;BMP_pressure;BME280_temperature;BME280_humidity;BME280_pressure;Samples;Min_cycle;Max_cycle;Signal;HPM_P1;HPM_P2
2024/03/15 00:08:04;;;;;;;;;;;12.50;99.90;;;;;;6721370;88;20058;-76
2024/03/15 00:18:05;;;;;;;;;;;12.50;99.90;;;;;;6710410;88;20134;-74
2024/03/15 00:28:05;;;;;;;;;;;12.20;99.90;;;;;;6709164;88;20185;-75
2024/03/15 00:38:05;;;;;;;;;;;12.00;99.90;;;;;;6712409;88;20702;-75
2024/03/15 00:48:09;;;;;;;;;;;11.60;99.90;;;;;;6712730;88;20059;-74
2024/03/15 00:58:10;;;;;;;;;;;11.40;99.90;;;;;;6710580;88;20076;-74
2024/03/15 01:08:10;;;;;;;;;;;11.40;99.90;;;;;;6709262;88;20877;-75
2024/03/15 01:18:11;;;;;;;;;;;11.20;99.90;;;;;;6710633;88;20333;-75
2024/03/15 01:28:12;;;;;;;;;;;11.10;99.90;;;;;;6709248;88;20106;-75
2024/03/15 01:38:12;;;;;;;;;;;10.80;99.90;;;;;;6708213;88;20067;-74
2024/03/15 01:48:13;;;;;;;;;;;10.70;99.90;;;;;;6711619;88;20087;-75
2024/03/15 01:58:14;;;;;;;;;;;10.60;99.90;;;;;;6710254;88;20074;-75
2024/03/15 02:08:19;;;;;;;;;;;10.60;99.90;;;;;;6714036;88;20059;-75
2024/03/15 02:18:19;;;;;;;;;;;10.50;99.90;;;;;;6709382;88;20506;-74
2024/03/15 02:28:22;;;;;;;;;;;10.60;99.90;;;;;;6712406;88;20093;-75
2024/03/15 02:38:26;;;;;;;;;;;10.90;99.90;;;;;;6711266;88;20055;-75
2024/03/15 02:48:27;;;;;;;;;;;11.10;99.90;;;;;;6710427;88;20178;-76
2024/03/15 02:58:28;;;;;;;;;;;11.10;99.90;;;;;;6710909;88;20113;-75
2024/03/15 03:08:28;;;;;;;;;;;11.60;99.90;;;;;;6723449;88;20539;-76
2024/03/15 03:18:28;;;;;;;;;;;11.90;99.90;;;;;;6711335;88;20221;-75
2024/03/15 03:28:29;;;;;;;;;;;12.30;99.90;;;;;;6708738;88;20190;-75
2024/03/15 03:38:29;;;;;;;;;;;12.20;99.90;;;;;;6710406;88;20080;-75
2024/03/15 03:48:31;;;;;;;;;;;12.30;99.90;;;;;;6716515;88;20085;-75
2024/03/15 03:58:33;;;;;;;;;;;12.30;99.90;;;;;;6711493;88;20078;-75
2024/03/15 04:08:34;;;;;;;;;;;12.20;99.90;;;;;;6713470;88;20109;-74
2024/03/15 04:18:35;;;;;;;;;;;12.20;99.90;;;;;;6719864;88;20134;-74
2024/03/15 04:28:37;;;;;;;;;;;12.20;99.90;;;;;;6711645;88;20109;-75
2024/03/15 04:38:38;;;;;;;;;;;12.10;99.90;;;;;;6712852;88;20494;-75
2024/03/15 04:48:38;;;;;;;;;;;12.10;99.90;;;;;;6713452;88;20063;-74
2024/03/15 04:58:39;;;;;;;;;;;12.20;99.90;;;;;;6720835;88;20514;-74
2024/03/15 05:08:39;;;;;;;;;;;12.30;99.90;;;;;;6714037;88;20052;-74
2024/03/15 05:18:43;;;;;;;;;;;12.20;99.90;;;;;;6712668;88;20444;-74
2024/03/15 05:28:45;;;;;;;;;;;12.40;99.90;;;;;;6714586;88;20085;-75
2024/03/15 05:38:47;;;;;;;;;;;12.50;99.90;;;;;;6716860;88;20058;-76
2024/03/15 05:48:47;;;;;;;;;;;12.50;99.90;;;;;;6717699;88;20659;-76
2024/03/15 05:58:47;;;;;;;;;;;12.60;99.90;;;;;;6709615;88;20203;-74
2024/03/15 06:08:48;;;;;;;;;;;12.50;99.90;;;;;;6713013;88;20541;-75
2024/03/15 06:18:52;;;;;;;;;;;12.60;99.90;;;;;;6707366;88;20075;-75
2024/03/15 06:28:55;;;;;;;;;;;12.50;99.90;;;;;;6710988;88;20600;-76
2024/03/15 06:39:09;;;;;;;;;;;12.50;99.90;;;;;;6710681;88;20643;-76
2024/03/15 06:49:13;;;;;;;;;;;12.60;99.90;;;;;;6706049;88;20499;-76
2024/03/15 06:59:13;;;;;;;;;;;12.60;99.90;;;;;;6709803;88;20552;-76
2024/03/15 07:09:17;;;;;;;;;;;12.80;99.90;;;;;;6711265;88;20199;-77
2024/03/15 07:19:20;;;;;;;;;;;13.00;99.90;;;;;;6707816;88;20072;-77
2024/03/15 07:29:20;;;;;;;;;;;13.20;99.90;;;;;;6714099;88;20518;-77
2024/03/15 07:39:23;;;;;;;;;;;13.20;99.90;;;;;;6710215;88;20099;-76
2024/03/15 07:49:23;;;;;;;;;;;13.50;99.90;;;;;;6709224;88;20836;-75
2024/03/15 07:59:24;;;;;;;;;;;13.70;99.90;;;;;;6711376;88;20133;-76
2024/03/15 08:09:25;;;;;;;;;;;13.80;99.90;;;;;;6714226;88;20093;-76
2024/03/15 08:19:26;;;;;;;;;;;13.90;99.90;;;;;;6730064;88;20054;-77
2024/03/15 08:29:26;;;;;;;;;;;14.20;99.90;;;;;;6718630;88;20543;-76
2024/03/15 08:39:29;;;;;;;;;;;14.50;99.90;;;;;;6713629;88;20078;-76
2024/03/15 08:49:30;;;;;;;;;;;14.80;99.90;;;;;;6713805;88;20452;-77
2024/03/15 08:59:31;;;;;;;;;;;14.90;99.90;;;;;;6716171;88;20652;-76
2024/03/15 09:09:39;;;;;;;;;;;15.00;99.90;;;;;;6719426;88;20158;-76
2024/03/15 09:19:40;;;;;;;;;;;15.20;99.90;;;;;;6718602;88;20060;-77
2024/03/15 09:29:47;;;;;;;;;;;15.20;99.90;;;;;;6718422;88;20059;-77
2024/03/15 09:39:47;;;;;;;;;;;15.40;99.90;;;;;;6719249;88;20487;-76
2024/03/15 09:49:48;;;;;;;;;;;15.60;99.90;;;;;;6719293;88;20058;-76
2024/03/15 09:59:49;;;;;;;;;;;15.90;99.90;;;;;;6725627;88;20036;-76
2024/03/15 10:09:52;;;;;;;;;;;16.20;99.90;;;;;;6752773;77;20519;-76
2024/03/15 10:19:52;;;;;;;;;;;16.30;99.90;;;;;;6752609;87;20103;-76
2024/03/15 10:29:55;;;;;;;;;;;16.30;99.90;;;;;;6746002;87;20062;-77
2024/03/15 10:39:55;;;;;;;;;;;16.30;99.90;;;;;;6749127;87;20104;-77
2024/03/15 10:49:57;;;;;;;;;;;16.70;99.90;;;;;;6752559;87;20093;-77
2024/03/15 10:59:57;;;;;;;;;;;16.70;99.90;;;;;;6752859;87;20072;-75
2024/03/15 11:09:58;;;;;;;;;;;16.50;99.90;;;;;;6746222;87;20065;-77
2024/03/15 11:20:04;;;;;;;;;;;16.60;99.90;;;;;;6747726;87;20127;-76
2024/03/15 11:30:05;;;;;;;;;;;16.90;99.90;;;;;;6749540;87;20060;-77
2024/03/15 11:40:06;;;;;;;;;;;16.90;99.90;;;;;;6755474;87;20090;-77
2024/03/15 11:50:14;;;;;;;;;;;17.20;99.90;;;;;;6768718;87;20057;-76
2024/03/15 12:00:20;;;;;;;;;;;17.40;99.90;;;;;;6761776;87;20124;-78
2024/03/15 12:10:21;;;;;;;;;;;17.70;99.90;;;;;;6753884;87;20112;-78
2024/03/15 12:20:21;;;;;;;;;;;17.50;99.90;;;;;;6748441;87;20058;-78
2024/03/15 12:30:22;;;;;;;;;;;17.90;99.90;;;;;;6746679;87;20452;-77
2024/03/15 12:40:22;;;;;;;;;;;17.80;99.90;;;;;;6742635;87;20053;-78
2024/03/15 12:50:26;;;;;;;;;;;18.50;99.90;;;;;;6744818;87;20249;-77
2024/03/15 13:00:30;;;;;;;;;;;18.70;99.90;;;;;;6744901;87;20543;-77
2024/03/15 13:10:30;;;;;;;;;;;18.10;99.90;;;;;;6748661;87;20563;-77
2024/03/15 13:20:31;;;;;;;;;;;19.10;99.90;;;;;;6754294;87;20069;-77
2024/03/15 13:30:32;;;;;;;;;;;18.60;99.90;;;;;;6748504;88;20112;-78
2024/03/15 13:40:33;;;;;;;;;;;19.10;99.90;;;;;;6747145;87;20618;-77
2024/03/15 13:50:33;;;;;;;;;;;18.50;99.90;;;;;;6747954;87;20053;-78
2024/03/15 14:00:37;;;;;;;;;;;18.50;99.90;;;;;;6747810;88;20159;-78
2024/03/15 14:10:39;;;;;;;;;;;18.60;99.90;;;;;;6749447;87;20063;-77
2024/03/15 14:20:41;;;;;;;;;;;18.70;99.90;;;;;;6755185;87;20119;-78
2024/03/15 14:30:41;;;;;;;;;;;17.90;99.90;;;;;;6745057;88;20078;-79
2024/03/15 14:40:42;;;;;;;;;;;17.90;99.90;;;;;;6749936;87;20504;-79
2024/03/15 14:50:42;;;;;;;;;;;17.60;99.90;;;;;;6753871;87;20069;-78
2024/03/15 15:00:44;;;;;;;;;;;17.50;99.90;;;;;;6761474;87;20080;-81
2024/03/15 15:10:47;;;;;;;;;;;17.50;99.90;;;;;;6754964;88;20135;-77
2024/03/15 15:20:49;;;;;;;;;;;17.30;99.90;;;;;;6753869;87;20066;-79
2024/03/15 15:30:49;;;;;;;;;;;17.30;99.90;;;;;;6751195;88;20251;-78
2024/03/15 15:40:51;;;;;;;;;;;17.50;99.90;;;;;;6762297;87;20127;-78
2024/03/15 15:50:51;;;;;;;;;;;17.60;99.90;;;;;;6750545;88;20042;-79
2024/03/15 16:00:52;;;;;;;;;;;17.30;99.90;;;;;;6753354;87;20073;-79
2024/03/15 16:10:52;;;;;;;;;;;17.00;99.90;;;;;;6759327;87;20142;-81
2024/03/15 16:20:52;;;;;;;;;;;16.90;99.90;;;;;;6759148;87;20088;-79
2024/03/15 16:30:53;;;;;;;;;;;16.50;99.90;;;;;;6758843;87;20088;-77
2024/03/15 16:40:54;;;;;;;;;;;16.30;99.90;;;;;;6759134;87;20065;-77
2024/03/15 16:50:54;;;;;;;;;;;16.20;99.90;;;;;;6762558;87;20065;-78
2024/03/15 17:00:54;;;;;;;;;;;15.80;99.90;;;;;;6754950;88;20610;-78
2024/03/15 17:10:55;;;;;;;;;;;14.90;99.90;;;;;;6753505;87;20073;-78
2024/03/15 17:20:56;;;;;;;;;;;12.00;99.90;;;;;;6753213;87;20166;-80
2024/03/15 17:30:57;;;;;;;;;;;11.20;99.90;;;;;;6759693;87;20093;-77
2024/03/15 17:40:57;;;;;;;;;;;10.80;99.90;;;;;;6755021;87;20087;-76
2024/03/15 17:50:57;;;;;;;;;;;10.60;99.90;;;;;;6752341;87;20093;-78
2024/03/15 18:01:02;;;;;;;;;;;10.30;99.90;;;;;;6751474;87;20213;-77
2024/03/15 18:11:04;;;;;;;;;;;10.30;99.90;;;;;;6754468;87;20081;-77
2024/03/15 18:21:04;;;;;;;;;;;10.30;99.90;;;;;;6749271;87;20069;-77
2024/03/15 18:31:07;;;;;;;;;;;10.30;99.90;;;;;;6755975;87;20120;-75
2024/03/15 18:41:08;;;;;;;;;;;10.30;99.90;;;;;;6747640;88;20182;-76
2024/03/15 18:51:08;;;;;;;;;;;10.30;99.90;;;;;;6744776;87;20607;-77
2024/03/15 19:01:10;;;;;;;;;;;10.30;99.90;;;;;;6746769;88;20075;-77
2024/03/15 19:11:10;;;;;;;;;;;10.30;99.90;;;;;;6748727;87;20501;-75
2024/03/15 19:21:11;;;;;;;;;;;10.20;99.90;;;;;;6748969;88;20195;-76
2024/03/15 19:31:11;;;;;;;;;;;10.20;99.90;;;;;;6747788;88;20296;-76
2024/03/15 19:41:13;;;;;;;;;;;10.20;99.90;;;;;;6752056;88;20062;-78
2024/03/15 19:51:13;;;;;;;;;;;10.20;99.90;;;;;;6751145;88;20054;-77
2024/03/15 20:01:16;;;;;;;;;;;10.10;99.90;;;;;;6754339;87;20089;-78
2024/03/15 20:11:16;;;;;;;;;;;10.20;99.90;;;;;;6755050;87;20113;-76
2024/03/15 20:21:17;;;;;;;;;;;10.30;99.90;;;;;;6755317;88;20153;-79
2024/03/15 20:31:17;;;;;;;;;;;10.30;99.90;;;;;;6756463;87;20078;-77
2024/03/15 20:41:18;;;;;;;;;;;10.40;99.90;;;;;;6753713;87;20079;-75
2024/03/15 20:51:20;;;;;;;;;;;10.30;99.90;;;;;;6756748;87;20074;-78
2024/03/15 21:01:21;;;;;;;;;;;10.40;99.90;;;;;;6756534;87;20057;-77
2024/03/15 21:11:21;;;;;;;;;;;10.50;99.90;;;;;;6755824;87;20085;-79
2024/03/15 21:21:22;;;;;;;;;;;10.40;99.90;;;;;;6756600;87;20044;-78
2024/03/15 21:31:22;;;;;;;;;;;10.30;99.90;;;;;;6755473;88;20084;-78
2024/03/15 21:41:22;;;;;;;;;;;10.20;99.90;;;;;;6752540;88;20095;-79
2024/03/15 21:51:23;;;;;;;;;;;10.10;99.90;;;;;;6752853;88;20162;-76
2024/03/15 22:01:26;;;;;;;;;;;10.10;99.90;;;;;;6751705;87;20081;-78
2024/03/15 22:11:26;;;;;;;;;;;10.00;99.90;;;;;;6753803;88;20137;-77
2024/03/15 22:21:27;;;;;;;;;;;10.00;99.90;;;;;;6758432;87;20194;-78
2024/03/15 22:31:28;;;;;;;;;;;10.00;99.90;;;;;;6750280;87;20057;-79
2024/03/15 22:41:28;;;;;;;;;;;10.10;99.90;;;;;;6749696;87;20196;-75
2024/03/15 22:51:29;;;;;;;;;;;10.00;99.90;;;;;;6748308;87;20078;-76
2024/03/15 23:01:37;;;;;;;;;;;10.20;99.90;;;;;;6752935;87;20529;-77
2024/03/15 23:11:37;;;;;;;;;;;10.40;99.90;;;;;;6748027;87;20187;-76
2024/03/15 23:21:38;;;;;;;;;;;10.40;99.90;;;;;;6751933;87;20253;-77
2024/03/15 23:31:39;;;;;;;;;;;10.20;99.90;;;;;;6750142;87;20183;-77
2024/03/15 23:41:39;;;;;;;;;;;10.40;99.90;;;;;;6744742;87;20057;-77
2024/03/15 23:51:40;;;;;;;;;;;10.30;99.90;;;;;;6752092;87;20057;-76
